createdAt,value
2023-02-22T00:01:28.314Z,3.63
2023-02-22T00:03:54.929Z,4.27
2023-02-22T00:06:24.973Z,4.57
2023-02-22T00:08:55.675Z,4.20
2023-02-22T00:11:22.338Z,4.23
2023-02-22T00:13:50.550Z,3.70
2023-02-22T00:16:20.008Z,4.43
2023-02-22T00:18:46.765Z,3.80
2023-02-22T00:21:15.030Z,4.23
2023-02-22T00:23:46.579Z,4.03
2023-02-22T00:26:19.737Z,4.47
2023-02-22T00:28:48.914Z,3.83
2023-02-22T00:31:16.246Z,4.03
2023-02-22T00:33:43.498Z,3.83
2023-02-22T00:36:12.078Z,3.83
2023-02-22T00:38:39.440Z,4.27
2023-02-22T00:41:06.168Z,4.03
2023-02-22T00:43:33.438Z,4.47
2023-02-22T00:46:00.170Z,3.90
2023-02-22T00:48:26.811Z,3.80
2023-02-22T00:50:55.218Z,4.03
2023-02-22T00:53:23.784Z,3.47
2023-02-22T00:55:50.529Z,4.17
2023-02-22T00:58:17.090Z,4.03
2023-02-22T01:00:43.936Z,4.23
2023-02-22T01:03:13.219Z,3.97
2023-02-22T01:05:40.121Z,3.90
2023-02-22T01:08:08.664Z,3.90
2023-02-22T01:10:36.262Z,4.20
2023-02-22T01:13:08.416Z,3.90
2023-02-22T01:15:36.967Z,4.27
2023-02-22T01:18:05.067Z,3.73
2023-02-22T01:20:32.434Z,5.07
2023-02-22T01:23:03.346Z,3.87
2023-02-22T01:25:31.114Z,4.17
2023-02-22T01:27:59.141Z,4.40
2023-02-22T01:30:32.920Z,4.30
2023-02-22T01:33:01.035Z,4.03
2023-02-22T01:35:31.070Z,3.97
2023-02-22T01:37:58.394Z,4.67
2023-02-22T01:40:33.734Z,3.73
2023-02-22T01:43:03.987Z,4.40
2023-02-22T01:45:30.692Z,4.53
2023-02-22T01:48:17.182Z,4.50
2023-02-22T01:51:00.814Z,4.50
2023-02-22T01:53:34.612Z,4.07
2023-02-22T01:56:02.169Z,4.20
2023-02-22T01:58:31.704Z,4.53
2023-02-22T02:00:58.317Z,4.20
2023-02-22T02:03:30.035Z,5.00
2023-02-22T02:06:01.406Z,4.50
2023-02-22T02:08:51.537Z,4.87
2023-02-22T02:11:22.626Z,3.87
2023-02-22T02:13:57.118Z,4.50
2023-02-22T02:16:26.128Z,4.77
2023-02-22T02:18:53.510Z,4.60
2023-02-22T02:21:50.752Z,4.13
2023-02-22T02:24:31.158Z,4.20
2023-02-22T02:27:18.023Z,4.17
2023-02-22T02:30:00.005Z,4.27
2023-02-22T02:32:40.610Z,4.03
2023-02-22T02:35:48.961Z,4.13
2023-02-22T02:38:45.278Z,3.83
2023-02-22T02:41:24.068Z,4.10
2023-02-22T02:43:57.329Z,4.33
2023-02-22T02:46:39.158Z,4.60
2023-02-22T02:49:31.080Z,5.33
2023-02-22T02:51:59.552Z,4.30
2023-02-22T02:54:26.449Z,4.87
2023-02-22T02:56:53.114Z,4.70
2023-02-22T02:59:28.981Z,5.30
2023-02-22T03:02:00.739Z,4.20
2023-02-22T03:04:42.462Z,4.17
2023-02-22T03:07:35.278Z,4.70
2023-02-22T03:10:14.340Z,4.37
2023-02-22T03:12:46.974Z,3.83
2023-02-22T03:15:25.580Z,4.67
2023-02-22T03:18:06.699Z,4.40
2023-02-22T03:20:55.422Z,4.30
2023-02-22T03:23:53.795Z,4.83
2023-02-22T03:26:25.722Z,4.27
2023-02-22T03:28:55.892Z,4.50
2023-02-22T03:31:29.415Z,4.63
2023-02-22T03:34:02.555Z,4.17
2023-02-22T03:36:33.837Z,4.50
2023-02-22T03:39:04.181Z,4.77
2023-02-22T03:41:33.265Z,4.00
2023-02-22T03:44:05.409Z,4.20
2023-02-22T03:46:33.013Z,4.20
2023-02-22T03:49:09.550Z,4.30
2023-02-22T03:51:36.604Z,4.60
2023-02-22T03:54:04.537Z,4.83
2023-02-22T03:56:37.881Z,4.77
2023-02-22T03:59:07.079Z,3.67
2023-02-22T04:01:34.060Z,4.37
2023-02-22T04:04:00.949Z,4.23
2023-02-22T04:06:28.462Z,4.47
2023-02-22T04:08:55.082Z,3.90
2023-02-22T04:11:21.963Z,3.77
2023-02-22T04:13:48.578Z,4.17
2023-02-22T04:16:15.297Z,4.13
2023-02-22T04:18:41.948Z,4.33
2023-02-22T04:21:09.239Z,4.30
2023-02-22T04:23:36.069Z,4.57
2023-02-22T04:26:03.470Z,4.13
2023-02-22T04:28:30.008Z,4.17
2023-02-22T04:30:56.645Z,3.93
2023-02-22T04:33:23.352Z,4.57
2023-02-22T04:35:51.595Z,4.63
2023-02-22T04:38:18.406Z,4.70
2023-02-22T04:40:45.287Z,4.67
2023-02-22T04:43:11.841Z,4.43
2023-02-22T04:45:38.371Z,4.40
2023-02-22T04:48:05.036Z,4.13
2023-02-22T04:50:31.635Z,4.87
2023-02-22T04:52:58.277Z,4.40
2023-02-22T04:55:24.918Z,4.47
2023-02-22T04:57:51.601Z,4.33
2023-02-22T05:00:21.710Z,4.20
2023-02-22T05:02:49.643Z,6.33
2023-02-22T05:05:17.696Z,4.37
2023-02-22T05:07:44.415Z,4.90
2023-02-22T05:10:11.631Z,4.90
2023-02-22T05:12:38.302Z,4.53
2023-02-22T05:15:07.112Z,4.10
2023-02-22T05:17:34.408Z,4.00
2023-02-22T05:20:01.591Z,4.20
2023-02-22T05:22:28.248Z,3.70
2023-02-22T05:24:55.754Z,4.83
2023-02-22T05:27:22.512Z,4.60
2023-02-22T05:32:39.659Z,4.43
2023-02-22T05:35:08.328Z,4.63
2023-02-22T05:37:35.570Z,4.13
2023-02-22T05:40:02.114Z,4.37
2023-02-22T05:42:28.660Z,4.37
2023-02-22T05:44:55.249Z,4.93
2023-02-22T05:47:21.888Z,5.47
2023-02-22T05:49:48.460Z,5.47
2023-02-22T05:52:15.018Z,5.13
2023-02-22T05:54:41.579Z,5.43
2023-02-22T05:57:08.192Z,5.07
2023-02-22T05:59:34.866Z,5.10
2023-02-22T06:02:01.508Z,5.53
2023-02-22T06:04:28.131Z,5.27
2023-02-22T06:06:54.686Z,6.20
2023-02-22T06:09:21.337Z,5.90
2023-02-22T06:11:50.698Z,5.60
2023-02-22T06:14:17.380Z,6.67
2023-02-22T06:16:44.006Z,5.53
2023-02-22T06:19:14.467Z,5.17
2023-02-22T06:21:48.278Z,5.90
2023-02-22T06:24:14.931Z,6.13
2023-02-22T06:26:41.531Z,6.20
2023-02-22T06:29:08.737Z,5.50
2023-02-22T06:31:35.365Z,5.80
2023-02-22T06:34:02.596Z,6.03
2023-02-22T06:36:29.341Z,5.83
2023-02-22T06:38:58.653Z,6.57
2023-02-22T06:41:25.206Z,6.00
2023-02-22T06:43:51.775Z,6.40
2023-02-22T06:46:19.429Z,6.50
2023-02-22T06:48:46.044Z,6.17
2023-02-22T06:51:12.703Z,6.70
2023-02-22T06:53:39.262Z,9.57
2023-02-22T06:56:06.254Z,9.33
2023-02-22T06:58:32.839Z,11.40
2023-02-22T07:00:59.923Z,7.97
2023-02-22T07:03:26.573Z,6.10
2023-02-22T07:05:53.193Z,7.53
2023-02-22T07:08:19.725Z,7.60
2023-02-22T07:10:46.344Z,9.07
2023-02-22T07:13:12.880Z,6.60
2023-02-22T07:15:39.699Z,5.70
2023-02-22T07:18:07.292Z,5.80
2023-02-22T07:20:34.004Z,5.43
2023-02-22T07:23:01.205Z,5.37
2023-02-22T07:25:27.924Z,5.17
2023-02-22T07:27:57.470Z,5.63
2023-02-22T07:30:32.512Z,5.97
2023-02-22T07:33:01.676Z,5.37
2023-02-22T07:35:36.592Z,5.43
2023-02-22T07:38:06.029Z,5.57
2023-02-22T07:40:32.588Z,5.63
2023-02-22T07:43:01.848Z,6.20
2023-02-22T07:45:33.902Z,5.73
2023-02-22T07:48:02.101Z,5.20
2023-02-22T07:50:31.091Z,5.20
2023-02-22T07:52:59.370Z,5.63
2023-02-22T07:55:28.309Z,5.47
2023-02-22T07:57:57.866Z,5.83
2023-02-22T08:00:27.853Z,6.00
2023-02-22T08:02:55.473Z,6.07
2023-02-22T08:05:25.791Z,5.73
2023-02-22T08:07:52.524Z,5.60
2023-02-22T08:10:22.243Z,5.67
2023-02-22T08:12:49.522Z,5.50
2023-02-22T08:15:20.582Z,5.37
2023-02-22T08:17:47.186Z,5.40
2023-02-22T08:20:13.909Z,4.73
2023-02-22T08:22:43.417Z,5.07
2023-02-22T08:25:10.460Z,4.93
2023-02-22T08:27:37.046Z,4.80
2023-02-22T08:30:04.377Z,4.43
2023-02-22T08:32:31.024Z,4.77
2023-02-22T08:34:57.726Z,4.53
2023-02-22T08:37:24.360Z,4.80
2023-02-22T08:39:53.730Z,4.67
2023-02-22T08:42:20.303Z,7.13
2023-02-22T08:44:46.868Z,5.33
2023-02-22T08:47:13.840Z,3.90
2023-02-22T08:49:40.386Z,4.70
2023-02-22T08:52:06.931Z,5.10
2023-02-22T08:54:33.509Z,5.20
2023-02-22T08:57:00.109Z,6.93
2023-02-22T08:59:27.213Z,5.23
2023-02-22T09:01:53.887Z,5.70
2023-02-22T09:04:20.545Z,5.33
2023-02-22T09:06:51.633Z,4.43
2023-02-22T09:09:21.244Z,4.80
2023-02-22T09:11:52.962Z,5.10
2023-02-22T09:14:19.861Z,5.00
2023-02-22T09:16:46.501Z,4.73
2023-02-22T09:19:13.112Z,6.17
2023-02-22T09:21:40.366Z,7.37
2023-02-22T09:24:10.910Z,5.17
2023-02-22T09:26:42.655Z,5.57
2023-02-22T09:29:09.761Z,5.63
2023-02-22T09:31:40.641Z,4.80
2023-02-22T09:34:13.969Z,5.30
2023-02-22T09:36:46.034Z,4.73
2023-02-22T09:39:15.327Z,4.30
2023-02-22T09:41:51.612Z,4.53
2023-02-22T09:45:12.728Z,5.03
2023-02-22T09:47:42.650Z,4.70
2023-02-22T09:50:17.382Z,4.50
2023-02-22T09:52:59.199Z,4.57
2023-02-22T09:55:48.404Z,4.90
2023-02-22T09:58:36.692Z,5.23
2023-02-22T10:01:15.226Z,4.57
2023-02-22T10:04:11.171Z,5.17
2023-02-22T10:06:42.060Z,5.07
2023-02-22T10:09:11.039Z,5.37
2023-02-22T10:12:02.571Z,5.97
2023-02-22T10:14:47.152Z,5.07
2023-02-22T10:17:36.991Z,5.03
2023-02-22T10:20:21.940Z,4.17
2023-02-22T10:23:04.579Z,5.90
2023-02-22T10:25:36.477Z,4.43
2023-02-22T10:28:30.974Z,4.27
2023-02-22T10:31:01.675Z,4.73
2023-02-22T10:33:33.193Z,4.17
2023-02-22T10:36:00.285Z,4.37
2023-02-22T10:38:32.965Z,4.30
2023-02-22T10:41:19.193Z,4.73
2023-02-22T10:43:45.809Z,3.70
2023-02-22T10:46:16.518Z,4.07
2023-02-22T10:48:47.088Z,3.90
2023-02-22T10:51:13.689Z,3.87
2023-02-22T10:53:40.591Z,4.30
2023-02-22T10:56:12.618Z,4.03
2023-02-22T10:59:02.488Z,4.20
2023-02-22T11:01:31.969Z,4.63
2023-02-22T11:04:04.252Z,4.60
2023-02-22T11:06:33.938Z,3.80
2023-02-22T11:09:10.840Z,3.93
2023-02-22T11:11:40.092Z,3.73
2023-02-22T11:14:10.620Z,3.87
2023-02-22T11:16:51.140Z,3.43
2023-02-22T11:19:23.892Z,3.87
2023-02-22T11:21:53.462Z,3.53
2023-02-22T11:24:24.122Z,3.90
2023-02-22T11:26:56.247Z,3.27
2023-02-22T11:29:36.308Z,4.40
2023-02-22T11:32:13.380Z,4.40
2023-02-22T11:34:42.695Z,3.80
2023-02-22T11:37:34.447Z,3.43
2023-02-22T11:40:15.607Z,3.70
2023-02-22T11:42:42.235Z,3.60
2023-02-22T11:45:23.628Z,4.20
2023-02-22T11:47:56.083Z,4.63
2023-02-22T11:50:28.150Z,4.43
2023-02-22T11:53:25.345Z,4.67
2023-02-22T11:56:04.667Z,4.90
2023-02-22T11:58:56.357Z,3.87
2023-02-22T12:01:43.236Z,4.40
2023-02-22T12:04:39.670Z,3.90
2023-02-22T12:07:26.501Z,4.60
2023-02-22T12:10:19.475Z,3.57
2023-02-22T12:13:17.235Z,3.60
2023-02-22T12:16:11.723Z,3.73
2023-02-22T12:19:01.580Z,4.13
2023-02-22T12:21:29.796Z,3.87
2023-02-22T12:24:07.350Z,3.83
2023-02-22T12:26:44.013Z,4.83
2023-02-22T12:29:44.208Z,3.60
2023-02-22T12:32:32.305Z,3.40
2023-02-22T12:35:16.568Z,3.97
2023-02-22T12:38:10.284Z,4.23
2023-02-22T12:40:53.867Z,4.03
2023-02-22T12:43:28.966Z,3.57
2023-02-22T12:46:06.643Z,3.80
2023-02-22T12:48:45.870Z,3.73
2023-02-22T12:51:19.239Z,3.50
2023-02-22T12:53:55.559Z,3.90
2023-02-22T12:56:51.149Z,3.70
2023-02-22T12:59:28.231Z,3.60
2023-02-22T13:02:28.633Z,3.30
2023-02-22T13:05:00.214Z,3.70
2023-02-22T13:07:50.666Z,3.77
2023-02-22T13:10:41.815Z,4.17
2023-02-22T13:13:24.591Z,3.23
2023-02-22T13:16:08.454Z,3.93
2023-02-22T13:19:05.932Z,4.23
2023-02-22T13:21:49.644Z,4.00
2023-02-22T13:24:26.283Z,3.03
2023-02-22T13:27:05.669Z,3.70
2023-02-22T13:29:38.334Z,3.10
2023-02-22T13:32:27.648Z,3.90
2023-02-22T13:35:23.849Z,3.90
2023-02-22T13:38:14.967Z,3.00
2023-02-22T13:41:12.250Z,3.30
2023-02-22T13:44:08.542Z,3.40
2023-02-22T13:46:58.848Z,3.50
2023-02-22T13:49:37.566Z,3.30
2023-02-22T13:52:17.348Z,3.40
2023-02-22T13:54:51.278Z,3.13
2023-02-22T13:57:22.139Z,3.67
2023-02-22T13:59:48.872Z,3.33
2023-02-22T14:02:52.519Z,3.73
2023-02-22T14:05:50.700Z,2.80
2023-02-22T14:08:17.300Z,3.10
2023-02-22T14:10:43.786Z,2.77
2023-02-22T14:13:11.584Z,3.10
2023-02-22T14:15:58.626Z,3.33
2023-02-22T14:18:49.394Z,2.90
2023-02-22T14:21:22.021Z,3.27
2023-02-22T14:23:53.765Z,3.87
2023-02-22T14:26:29.834Z,3.40
2023-02-22T14:29:08.461Z,3.07
2023-02-22T14:31:41.127Z,3.43
2023-02-22T14:34:11.931Z,3.27
2023-02-22T14:36:46.984Z,3.00
2023-02-22T14:39:24.324Z,3.60
2023-02-22T14:42:17.898Z,3.37
2023-02-22T14:45:12.659Z,3.37
2023-02-22T14:47:49.381Z,3.17
2023-02-22T14:50:43.773Z,3.13
2023-02-22T14:53:13.020Z,3.60
2023-02-22T14:55:57.624Z,3.37
2023-02-22T14:58:40.547Z,3.47
2023-02-22T15:01:21.351Z,3.30
2023-02-22T15:03:53.536Z,3.30
2023-02-22T15:06:28.760Z,3.97
2023-02-22T15:09:25.073Z,3.57
2023-02-22T15:12:05.401Z,3.17
2023-02-22T15:14:44.502Z,2.97
2023-02-22T15:17:21.882Z,3.43
2023-02-22T15:19:49.716Z,3.00
2023-02-22T15:22:26.239Z,3.50
2023-02-22T15:25:07.567Z,3.50
2023-02-22T15:27:37.053Z,3.23
2023-02-22T15:30:16.991Z,3.40
2023-02-22T15:33:01.171Z,3.37
2023-02-22T15:35:30.729Z,3.63
2023-02-22T15:38:07.125Z,2.97
2023-02-22T15:40:35.365Z,3.67
2023-02-22T15:43:05.155Z,3.37
2023-02-22T15:45:32.412Z,3.10
2023-02-22T15:47:59.195Z,3.30
2023-02-22T15:50:33.227Z,3.70
2023-02-22T15:53:03.267Z,3.23
2023-02-22T15:55:39.728Z,3.00
2023-02-22T15:58:28.741Z,3.57
2023-02-22T16:01:05.356Z,3.13
2023-02-22T16:03:48.639Z,3.30
2023-02-22T16:06:37.032Z,3.47
2023-02-22T16:09:17.229Z,3.37
2023-02-22T16:11:46.008Z,4.13
2023-02-22T16:14:31.370Z,3.20
2023-02-22T16:17:29.552Z,4.30
2023-02-22T16:19:58.848Z,3.90
2023-02-22T16:22:34.410Z,3.77
2023-02-22T16:25:19.517Z,3.23
2023-02-22T16:27:47.743Z,3.60
2023-02-22T16:30:25.812Z,3.50
2023-02-22T16:32:55.572Z,3.10
2023-02-22T16:35:28.339Z,3.50
2023-02-22T16:37:59.163Z,3.90
2023-02-22T16:40:34.480Z,3.90
2023-02-22T16:43:04.282Z,3.60
2023-02-22T16:45:30.904Z,3.77
2023-02-22T16:47:59.363Z,3.33
2023-02-22T16:50:25.984Z,3.60
2023-02-22T16:52:55.630Z,3.60
2023-02-22T16:55:22.792Z,3.77
2023-02-22T16:57:50.583Z,3.27
2023-02-22T17:00:37.326Z,3.87
2023-02-22T17:03:05.499Z,3.50
2023-02-22T17:05:36.746Z,3.67
2023-02-22T17:08:05.018Z,3.83
2023-02-22T17:10:31.926Z,3.10
2023-02-22T17:13:01.012Z,3.90
2023-02-22T17:15:35.410Z,3.53
2023-02-22T17:18:04.804Z,3.33
2023-02-22T17:20:31.758Z,4.23
2023-02-22T17:25:45.825Z,3.50
2023-02-22T17:28:13.025Z,3.70
2023-02-22T17:30:39.895Z,3.50
2023-02-22T17:33:09.108Z,2.97
2023-02-22T17:35:37.963Z,3.37
2023-02-22T17:38:08.615Z,3.47
2023-02-22T17:40:39.650Z,3.40
2023-02-22T17:43:10.624Z,3.20
2023-02-22T17:45:41.961Z,3.30
2023-02-22T17:48:17.790Z,3.30
2023-02-22T17:50:46.400Z,3.60
2023-02-22T17:53:13.276Z,3.67
2023-02-22T17:55:41.632Z,3.30
2023-02-22T17:58:14.489Z,3.43
2023-02-22T18:00:47.022Z,3.43
2023-02-22T18:03:16.416Z,3.40
2023-02-22T18:05:49.075Z,2.90
2023-02-22T18:08:16.036Z,3.60
2023-02-22T18:10:43.952Z,3.50
2023-02-22T18:13:16.665Z,4.17
2023-02-22T18:15:43.939Z,3.47
2023-02-22T18:18:10.574Z,5.00
2023-02-22T18:20:43.412Z,3.70
2023-02-22T18:23:17.240Z,3.33
2023-02-22T18:26:09.602Z,3.10
2023-02-22T18:28:37.403Z,3.23
2023-02-22T18:31:14.759Z,3.80
2023-02-22T18:33:46.772Z,3.87
2023-02-22T18:36:14.704Z,4.10
2023-02-22T18:38:43.055Z,3.57
2023-02-22T18:41:13.288Z,3.33
2023-02-22T18:43:40.575Z,3.13
2023-02-22T18:46:13.483Z,2.77
2023-02-22T18:48:40.539Z,3.30
2023-02-22T18:51:12.447Z,2.93
2023-02-22T18:53:41.024Z,3.43
2023-02-22T18:56:10.176Z,3.37
2023-02-22T18:58:38.669Z,3.53
2023-02-22T19:01:06.865Z,3.47
2023-02-22T19:03:37.909Z,3.47
2023-02-22T19:06:10.625Z,3.00
2023-02-22T19:08:39.504Z,3.20
2023-02-22T19:11:09.235Z,3.50
2023-02-22T19:13:36.506Z,3.10
2023-02-22T19:16:04.970Z,3.27
2023-02-22T19:18:31.919Z,3.10
2023-02-22T19:21:00.421Z,3.90
2023-02-22T19:23:28.247Z,3.50
2023-02-22T19:25:55.393Z,3.67
2023-02-22T19:28:28.016Z,3.40
2023-02-22T19:30:57.499Z,4.13
2023-02-22T19:33:26.040Z,3.37
2023-02-22T19:35:52.647Z,3.90
2023-02-22T19:38:19.733Z,3.53
2023-02-22T19:40:46.635Z,3.43
2023-02-22T19:43:14.316Z,3.00
2023-02-22T19:45:41.201Z,3.67
2023-02-22T19:48:07.883Z,3.10
2023-02-22T19:50:34.600Z,3.50
2023-02-22T19:53:01.848Z,3.63
2023-02-22T19:55:32.171Z,3.73
2023-02-22T19:57:59.160Z,3.60
2023-02-22T20:00:27.008Z,4.13
2023-02-22T20:03:05.913Z,4.70
2023-02-22T20:05:33.866Z,7.13
2023-02-22T20:08:00.561Z,4.20
2023-02-22T20:10:27.171Z,4.23
2023-02-22T20:12:53.797Z,4.37
2023-02-22T20:15:23.774Z,3.67
2023-02-22T20:17:51.377Z,3.80
2023-02-22T20:20:18.885Z,3.13
2023-02-22T20:22:45.797Z,5.80
2023-02-22T20:25:13.603Z,3.80
2023-02-22T20:27:45.310Z,5.07
2023-02-22T20:30:18.074Z,3.93
2023-02-22T20:32:48.225Z,3.87
2023-02-22T20:35:16.389Z,3.73
2023-02-22T20:37:43.490Z,3.87
2023-02-22T20:40:10.466Z,4.00
2023-02-22T20:42:37.295Z,4.00
2023-02-22T20:45:09.746Z,4.10
2023-02-22T20:47:37.213Z,3.63
2023-02-22T20:50:05.828Z,3.90
2023-02-22T20:52:36.294Z,4.57
2023-02-22T20:55:04.481Z,4.03
2023-02-22T20:57:31.100Z,4.27
2023-02-22T20:59:57.771Z,3.87
2023-02-22T21:02:27.672Z,4.53
2023-02-22T21:04:54.566Z,4.60
2023-02-22T21:07:22.384Z,4.70
2023-02-22T21:09:49.804Z,4.77
2023-02-22T21:12:16.391Z,4.73
2023-02-22T21:14:44.297Z,4.53
2023-02-22T21:17:10.851Z,4.67
2023-02-22T21:19:38.138Z,4.60
2023-02-22T21:22:08.226Z,4.57
2023-02-22T21:24:36.652Z,5.10
2023-02-22T21:27:06.771Z,4.90
2023-02-22T21:29:35.441Z,5.33
2023-02-22T21:32:02.784Z,5.37
2023-02-22T21:34:29.782Z,4.87
2023-02-22T21:36:56.746Z,5.60
2023-02-22T21:39:28.480Z,5.53
2023-02-22T21:42:00.018Z,5.90
2023-02-22T21:44:27.665Z,5.80
2023-02-22T21:46:54.341Z,6.80
2023-02-22T21:49:24.962Z,5.63
2023-02-22T21:51:52.491Z,5.47
2023-02-22T21:54:19.726Z,6.00
2023-02-22T21:56:49.490Z,5.73
2023-02-22T21:59:19.993Z,5.37
2023-02-22T22:01:55.121Z,6.27
2023-02-22T22:04:27.323Z,6.33
2023-02-22T22:06:56.573Z,6.77
2023-02-22T22:09:24.478Z,6.23
2023-02-22T22:11:58.324Z,6.33
2023-02-22T22:14:27.034Z,6.87
2023-02-22T22:17:01.170Z,7.10
2023-02-22T22:19:33.518Z,6.27
2023-02-22T22:22:00.851Z,7.30
2023-02-22T22:24:31.902Z,6.80
2023-02-22T22:27:03.859Z,6.93
2023-02-22T22:29:30.888Z,7.60
2023-02-22T22:31:57.555Z,7.00
2023-02-22T22:34:24.343Z,7.77
2023-02-22T22:36:51.067Z,7.30
2023-02-22T22:39:20.783Z,8.20
2023-02-22T22:41:48.123Z,6.97
2023-02-22T22:44:16.298Z,7.23
2023-02-22T22:46:48.456Z,7.77
2023-02-22T22:49:18.377Z,7.20
2023-02-22T22:51:47.583Z,8.47
2023-02-22T22:54:14.735Z,8.03
2023-02-22T22:56:41.470Z,8.00
2023-02-22T22:59:09.533Z,8.47
2023-02-22T23:01:44.203Z,8.47
2023-02-22T23:04:17.701Z,8.17
2023-02-22T23:06:52.350Z,8.43
2023-02-22T23:09:28.275Z,8.97
2023-02-22T23:11:57.675Z,8.50
2023-02-22T23:14:31.169Z,8.57
2023-02-22T23:17:03.098Z,9.50
2023-02-22T23:19:35.118Z,9.27
2023-02-22T23:22:05.165Z,9.47
2023-02-22T23:24:36.074Z,9.87
2023-02-22T23:27:07.041Z,9.43
2023-02-22T23:29:37.629Z,10.00
2023-02-22T23:32:05.939Z,9.43
2023-02-22T23:34:33.860Z,10.97
2023-02-22T23:37:00.425Z,10.13
2023-02-22T23:39:27.698Z,9.93
2023-02-22T23:41:59.125Z,10.07
2023-02-22T23:44:27.187Z,10.67
2023-02-22T23:46:56.873Z,10.03
2023-02-22T23:49:26.425Z,10.70
2023-02-22T23:51:53.368Z,9.77
2023-02-22T23:54:21.136Z,11.10
2023-02-22T23:56:56.256Z,10.00
2023-02-22T23:59:27.093Z,10.70
